createdAt,value
2018-05-16T00:03:29.525Z,19.00
2018-05-16T00:08:25.777Z,19.12
2018-05-16T00:13:21.920Z,19.29
2018-05-16T00:18:17.967Z,19.16
2018-05-16T00:23:13.612Z,19.26
2018-05-16T00:28:10.593Z,19.14
2018-05-16T00:33:07.051Z,19.07
2018-05-16T00:38:02.547Z,18.84
2018-05-16T00:42:59.313Z,18.71
2018-05-16T00:47:55.952Z,18.31
2018-05-16T00:52:51.966Z,18.33
2018-05-16T00:57:47.565Z,18.37
2018-05-16T01:02:44.447Z,18.15
2018-05-16T01:07:41.307Z,17.98
2018-05-16T01:12:37.590Z,18.11
2018-05-16T01:17:33.580Z,17.87
2018-05-16T01:22:29.413Z,17.67
2018-05-16T01:27:25.199Z,17.80
2018-05-16T01:32:21.318Z,17.78
2018-05-16T01:37:17.059Z,17.72
2018-05-16T01:42:13.227Z,17.65
2018-05-16T01:47:09.117Z,17.59
2018-05-16T01:52:05.347Z,17.34
2018-05-16T01:57:01.075Z,17.01
2018-05-16T02:01:57.027Z,17.22
2018-05-16T02:06:52.586Z,16.90
2018-05-16T02:11:48.192Z,16.89
2018-05-16T02:16:44.497Z,16.61
2018-05-16T02:21:40.743Z,16.75
2018-05-16T02:26:36.662Z,16.60
2018-05-16T02:31:32.928Z,16.41
2018-05-16T02:36:28.720Z,16.58
2018-05-16T02:41:24.736Z,16.33
2018-05-16T02:46:20.582Z,15.86
2018-05-16T02:51:17.282Z,15.73
2018-05-16T02:56:13.548Z,15.37
2018-05-16T03:01:08.828Z,15.39
2018-05-16T03:06:04.749Z,15.33
2018-05-16T03:11:00.240Z,15.18
2018-05-16T03:15:56.185Z,15.07
2018-05-16T03:20:51.989Z,15.27
2018-05-16T03:25:47.477Z,15.10
2018-05-16T03:30:43.738Z,15.18
2018-05-16T03:35:39.604Z,15.03
2018-05-16T03:40:35.924Z,15.31
2018-05-16T03:45:31.494Z,15.14
2018-05-16T03:50:27.460Z,15.03
2018-05-16T03:55:24.382Z,14.97
2018-05-16T04:00:19.842Z,14.89
2018-05-16T04:05:16.761Z,14.97
2018-05-16T04:10:12.527Z,15.04
2018-05-16T04:15:09.563Z,15.24
2018-05-16T04:20:05.085Z,15.46
2018-05-16T04:25:01.779Z,15.95
2018-05-16T04:29:58.240Z,16.64
2018-05-16T04:34:54.548Z,16.99
2018-05-16T04:39:51.954Z,17.87
2018-05-16T04:44:48.178Z,18.15
2018-05-16T04:49:44.485Z,17.98
2018-05-16T04:54:40.636Z,18.08
2018-05-16T04:59:36.476Z,18.25
2018-05-16T05:04:32.873Z,18.80
2018-05-16T05:09:29.788Z,18.43
2018-05-16T05:14:25.378Z,18.92
2018-05-16T05:19:21.097Z,18.73
2018-05-16T05:24:17.554Z,18.63
2018-05-16T05:29:13.311Z,18.62
2018-05-16T05:34:10.022Z,18.44
2018-05-16T05:39:05.605Z,18.41
2018-05-16T05:44:02.121Z,18.74
2018-05-16T05:48:58.718Z,19.33
2018-05-16T05:53:54.841Z,19.54
2018-05-16T05:58:50.556Z,19.36
2018-05-16T06:03:46.410Z,19.34
2018-05-16T06:08:42.249Z,19.26
2018-05-16T06:13:38.138Z,19.07
2018-05-16T06:18:34.096Z,19.12
2018-05-16T06:23:30.187Z,19.07
2018-05-16T06:28:27.044Z,18.88
2018-05-16T06:33:22.429Z,18.65
2018-05-16T06:38:17.932Z,18.49
2018-05-16T06:43:14.829Z,18.60
2018-05-16T06:48:10.428Z,18.62
2018-05-16T06:53:06.203Z,18.68
2018-05-16T06:58:02.230Z,18.55
2018-05-16T07:02:57.685Z,18.29
2018-05-16T07:07:53.536Z,18.16
2018-05-16T07:12:50.419Z,18.28
2018-05-16T07:17:46.003Z,18.28
2018-05-16T07:22:41.934Z,17.97
2018-05-16T07:27:38.249Z,17.94
2018-05-16T07:32:34.059Z,17.98
2018-05-16T07:37:30.004Z,18.11
2018-05-16T07:42:25.812Z,18.03
2018-05-16T07:47:21.871Z,18.16
2018-05-16T07:52:17.491Z,17.92
2018-05-16T07:57:13.309Z,18.16
2018-05-16T08:02:09.749Z,18.10
2018-05-16T08:07:07.291Z,18.37
2018-05-16T08:12:03.350Z,18.49
2018-05-16T08:16:59.408Z,18.50
2018-05-16T08:21:56.459Z,18.98
2018-05-16T08:26:52.933Z,19.37
2018-05-16T08:31:49.537Z,19.40
2018-05-16T08:36:46.140Z,19.45
2018-05-16T08:41:43.054Z,19.52
2018-05-16T08:46:39.113Z,19.66
2018-05-16T08:51:35.167Z,20.24
2018-05-16T08:56:32.111Z,20.72
2018-05-16T09:01:28.849Z,21.69
2018-05-16T09:06:26.305Z,21.79
2018-05-16T09:11:22.774Z,21.25
2018-05-16T09:16:18.542Z,21.67
2018-05-16T09:21:15.196Z,21.51
2018-05-16T09:26:10.944Z,21.96
2018-05-16T09:31:06.725Z,21.22
2018-05-16T09:36:01.669Z,20.99
2018-05-16T09:40:56.830Z,20.62
2018-05-16T09:45:52.690Z,20.70
2018-05-16T09:50:48.784Z,20.84
2018-05-16T09:55:45.341Z,21.24
2018-05-16T10:00:41.906Z,21.82
2018-05-16T10:05:38.851Z,21.62
2018-05-16T10:10:34.476Z,21.15
2018-05-16T10:15:30.303Z,21.27
2018-05-16T10:20:26.630Z,22.06
2018-05-16T10:25:22.235Z,21.75
2018-05-16T10:30:17.966Z,21.39
2018-05-16T10:35:20.475Z,21.11
2018-05-16T10:40:18.422Z,21.67
2018-05-16T10:45:15.155Z,21.83
2018-05-16T10:50:11.136Z,21.87
2018-05-16T10:55:07.279Z,21.83
2018-05-16T11:00:03.811Z,22.33
2018-05-16T11:05:02.479Z,23.65
2018-05-16T11:09:59.397Z,23.03
2018-05-16T11:14:53.775Z,22.14
2018-05-16T11:19:49.275Z,22.39
2018-05-16T11:24:45.818Z,22.47
2018-05-16T11:29:42.391Z,22.66
2018-05-16T11:34:44.959Z,22.98
2018-05-16T11:39:40.668Z,22.43
2018-05-16T11:44:36.918Z,22.51
2018-05-16T11:49:32.953Z,22.69
2018-05-16T11:54:29.779Z,22.57
2018-05-16T11:59:25.767Z,22.84
2018-05-16T12:04:22.603Z,23.23
2018-05-16T12:09:18.658Z,23.21
2018-05-16T12:14:15.685Z,23.47
2018-05-16T12:19:14.910Z,24.05
2018-05-16T12:24:12.344Z,24.08
2018-05-16T12:29:08.623Z,24.53
2018-05-16T12:34:04.463Z,23.86
2018-05-16T12:38:59.554Z,23.20
2018-05-16T12:43:55.117Z,23.24
2018-05-16T12:48:51.403Z,23.48
2018-05-16T12:53:48.839Z,23.44
2018-05-16T12:58:44.058Z,23.37
2018-05-16T13:03:41.256Z,23.51
2018-05-16T13:08:37.950Z,23.37
2018-05-16T13:13:33.771Z,23.25
2018-05-16T13:18:29.518Z,23.32
2018-05-16T13:23:25.502Z,23.00
2018-05-16T13:28:22.602Z,23.31
2018-05-16T13:33:19.500Z,23.58
2018-05-16T13:38:16.752Z,24.08
2018-05-16T13:43:13.258Z,24.81
2018-05-16T13:48:09.062Z,23.99
2018-05-16T13:53:04.714Z,23.77
2018-05-16T13:58:01.165Z,23.93
2018-05-16T14:02:57.085Z,23.99
2018-05-16T14:07:54.232Z,23.98
2018-05-16T14:12:50.038Z,24.08
2018-05-16T14:17:45.714Z,23.81
2018-05-16T14:22:41.513Z,23.87
2018-05-16T14:27:37.360Z,23.96
2018-05-16T14:32:33.535Z,24.26
2018-05-16T14:37:29.877Z,24.30
2018-05-16T14:42:26.067Z,24.20
2018-05-16T14:47:22.215Z,24.28
2018-05-16T14:52:17.744Z,23.96
2018-05-16T14:57:13.268Z,23.81
2018-05-16T15:02:08.931Z,23.80
2018-05-16T15:07:06.016Z,23.92
2018-05-16T15:12:02.125Z,24.32
2018-05-16T15:16:58.612Z,24.42
2018-05-16T15:21:56.225Z,24.36
2018-05-16T15:26:51.692Z,24.14
2018-05-16T15:31:48.555Z,24.11
2018-05-16T15:36:43.669Z,23.81
2018-05-16T15:41:38.916Z,23.06
2018-05-16T15:46:33.884Z,21.89
2018-05-16T15:51:29.119Z,20.78
2018-05-16T15:56:24.575Z,19.99
2018-05-16T16:01:21.142Z,20.21
2018-05-16T16:06:16.493Z,19.62
2018-05-16T16:11:12.138Z,19.63
2018-05-16T16:16:09.696Z,19.71
2018-05-16T16:21:05.789Z,20.16
2018-05-16T16:26:02.895Z,19.84
2018-05-16T16:30:58.689Z,20.04
2018-05-16T16:35:55.715Z,20.24
2018-05-16T16:40:51.965Z,20.41
2018-05-16T16:45:48.419Z,20.81
2018-05-16T16:50:44.427Z,21.03
2018-05-16T16:55:40.863Z,21.35
2018-05-16T17:00:37.214Z,21.60
2018-05-16T17:05:33.302Z,21.58
2018-05-16T17:10:29.194Z,21.46
2018-05-16T17:15:25.073Z,21.37
2018-05-16T17:20:21.326Z,21.27
2018-05-16T17:25:17.469Z,21.12
2018-05-16T17:30:14.347Z,20.81
2018-05-16T17:35:09.770Z,20.55
2018-05-16T17:40:05.403Z,20.18
2018-05-16T17:45:01.069Z,20.22
2018-05-16T17:49:57.098Z,20.26
2018-05-16T17:54:53.172Z,20.06
2018-05-16T17:59:48.843Z,19.67
2018-05-16T18:04:44.429Z,19.48
2018-05-16T18:09:41.007Z,18.92
2018-05-16T18:14:36.596Z,18.84
2018-05-16T18:19:32.254Z,18.68
2018-05-16T18:24:27.810Z,18.49
2018-05-16T18:29:23.832Z,18.20
2018-05-16T18:34:21.241Z,18.26
2018-05-16T18:39:16.511Z,17.86
2018-05-16T18:44:12.067Z,17.65
2018-05-16T18:49:07.680Z,17.48
2018-05-16T18:54:03.459Z,17.23
2018-05-16T18:58:59.438Z,17.15
2018-05-16T19:03:55.022Z,17.09
2018-05-16T19:08:50.692Z,16.79
2018-05-16T19:13:47.564Z,16.76
2018-05-16T19:18:43.900Z,16.60
2018-05-16T19:23:39.701Z,16.56
2018-05-16T19:28:35.535Z,16.29
2018-05-16T19:33:31.309Z,16.32
2018-05-16T19:38:27.280Z,16.36
2018-05-16T19:43:23.131Z,16.24
2018-05-16T19:48:19.041Z,16.36
2018-05-16T19:53:15.020Z,16.16
2018-05-16T19:58:10.829Z,16.13
2018-05-16T20:03:06.925Z,15.95
2018-05-16T20:08:02.714Z,15.95
2018-05-16T20:12:58.638Z,15.68
2018-05-16T20:17:54.685Z,15.46
2018-05-16T20:22:51.407Z,15.35
2018-05-16T20:27:46.875Z,15.33
2018-05-16T20:32:43.671Z,15.37
2018-05-16T20:37:39.240Z,15.28
2018-05-16T20:42:34.977Z,15.06
2018-05-16T20:47:30.719Z,15.10
2018-05-16T20:52:26.575Z,14.89
2018-05-16T20:57:23.224Z,15.06
2018-05-16T21:02:18.850Z,14.81
2018-05-16T21:07:14.771Z,14.72
2018-05-16T21:12:11.704Z,14.65
2018-05-16T21:17:07.244Z,14.55
2018-05-16T21:22:02.676Z,14.47
2018-05-16T21:26:58.494Z,14.45
2018-05-16T21:31:54.723Z,14.48
2018-05-16T21:36:50.486Z,14.35
2018-05-16T21:41:46.416Z,14.32
2018-05-16T21:46:43.244Z,14.22
2018-05-16T21:51:38.713Z,14.32
2018-05-16T21:56:34.928Z,14.15
2018-05-16T22:01:31.807Z,14.08
2018-05-16T22:06:27.333Z,13.79
2018-05-16T22:11:23.662Z,13.79
2018-05-16T22:16:19.492Z,13.83
2018-05-16T22:21:16.298Z,13.72
2018-05-16T22:26:11.683Z,13.71
2018-05-16T22:31:07.771Z,13.50
2018-05-16T22:36:03.159Z,13.37
2018-05-16T22:40:59.132Z,13.09
2018-05-16T22:45:55.168Z,12.90
2018-05-16T22:50:50.691Z,12.83
2018-05-16T22:55:47.177Z,12.83
2018-05-16T23:00:42.975Z,12.91
2018-05-16T23:05:39.536Z,12.85
2018-05-16T23:10:36.397Z,12.85
2018-05-16T23:15:31.831Z,12.60
2018-05-16T23:20:27.572Z,12.49
2018-05-16T23:25:24.054Z,12.46
2018-05-16T23:30:19.720Z,12.50
2018-05-16T23:35:16.624Z,12.35
2018-05-16T23:40:12.041Z,12.31
2018-05-16T23:45:07.744Z,12.04
2018-05-16T23:50:03.321Z,11.97
2018-05-16T23:54:58.721Z,12.04
2018-05-16T23:59:54.624Z,11.86
